createdAt,value
2019-04-28T00:00:37.124Z,8.83
2019-04-28T00:03:06.620Z,8.67
2019-04-28T00:05:36.125Z,7.33
2019-04-28T00:08:05.927Z,8.00
2019-04-28T00:10:35.466Z,9.47
2019-04-28T00:13:05.538Z,8.03
2019-04-28T00:15:35.377Z,9.77
2019-04-28T00:18:05.036Z,12.30
2019-04-28T00:20:48.465Z,10.07
2019-04-28T00:23:34.441Z,8.23
2019-04-28T00:26:08.597Z,11.30
2019-04-28T00:28:38.084Z,11.40
2019-04-28T00:31:07.830Z,8.27
2019-04-28T00:33:37.394Z,11.53
2019-04-28T00:36:06.967Z,12.37
2019-04-28T00:38:36.481Z,13.23
2019-04-28T00:41:06.134Z,11.20
2019-04-28T00:43:35.626Z,16.17
2019-04-28T00:46:06.833Z,11.97
2019-04-28T00:48:36.341Z,11.53
2019-04-28T00:51:05.928Z,13.13
2019-04-28T00:53:35.509Z,10.70
2019-04-28T00:56:05.093Z,12.63
2019-04-28T00:58:34.645Z,11.30
2019-04-28T01:01:08.656Z,12.40
2019-04-28T01:03:38.164Z,12.23
2019-04-28T01:06:07.664Z,15.80
2019-04-28T01:08:37.232Z,13.47
2019-04-28T01:11:06.789Z,12.90
2019-04-28T01:13:36.374Z,17.27
2019-04-28T01:16:10.325Z,12.67
2019-04-28T01:18:41.532Z,13.87
2019-04-28T01:21:11.092Z,12.90
2019-04-28T01:23:40.760Z,14.60
2019-04-28T01:26:10.325Z,17.03
2019-04-28T01:28:39.940Z,17.50
2019-04-28T01:31:21.236Z,17.47
2019-04-28T01:34:10.324Z,16.63
2019-04-28T01:36:40.042Z,18.17
2019-04-28T01:39:10.069Z,18.00
2019-04-28T01:41:39.880Z,18.17
2019-04-28T01:44:10.207Z,17.40
2019-04-28T01:46:40.041Z,19.63
2019-04-28T01:49:09.723Z,19.70
2019-04-28T01:51:39.216Z,18.00
2019-04-28T01:54:09.826Z,20.97
2019-04-28T01:56:40.403Z,20.87
2019-04-28T01:59:10.217Z,20.00
2019-04-28T02:01:40.042Z,23.20
2019-04-28T02:04:10.098Z,19.33
2019-04-28T02:06:39.982Z,20.87
2019-04-28T02:09:10.032Z,17.83
2019-04-28T02:11:41.191Z,19.60
2019-04-28T02:14:11.065Z,21.80
2019-04-28T02:16:40.828Z,17.90
2019-04-28T02:19:10.741Z,18.67
2019-04-28T02:21:59.486Z,17.27
2019-04-28T02:24:36.436Z,17.53
2019-04-28T02:27:06.173Z,17.63
2019-04-28T02:29:35.826Z,14.47
2019-04-28T02:32:07.288Z,18.47
2019-04-28T02:34:37.241Z,17.70
2019-04-28T02:37:06.801Z,15.30
2019-04-28T02:39:36.387Z,18.53
2019-04-28T02:42:05.877Z,18.77
2019-04-28T02:44:35.435Z,19.37
2019-04-28T02:47:05.015Z,18.27
2019-04-28T02:49:36.216Z,19.43
2019-04-28T02:52:07.381Z,17.43
2019-04-28T02:54:36.997Z,19.23
2019-04-28T02:57:06.569Z,15.63
2019-04-28T02:59:36.061Z,18.13
2019-04-28T03:02:05.706Z,18.67
2019-04-28T03:04:35.261Z,20.63
2019-04-28T03:07:04.866Z,17.23
2019-04-28T03:09:34.485Z,17.83
2019-04-28T03:12:04.320Z,18.47
2019-04-28T03:14:33.886Z,23.10
2019-04-28T03:17:03.514Z,16.20
2019-04-28T03:19:34.077Z,17.93
2019-04-28T03:22:03.901Z,18.93
2019-04-28T03:24:33.389Z,19.10
2019-04-28T03:27:10.914Z,18.93
2019-04-28T03:29:52.555Z,16.20
2019-04-28T03:32:36.861Z,20.17
2019-04-28T03:34:54.998Z,15.13
2019-04-28T03:37:24.617Z,19.50
2019-04-28T03:39:54.229Z,13.30
2019-04-28T03:42:23.730Z,16.10
2019-04-28T03:44:54.020Z,15.80
2019-04-28T03:47:23.523Z,15.73
2019-04-28T03:49:53.146Z,16.70
2019-04-28T03:52:22.644Z,19.97
2019-04-28T03:54:52.138Z,15.60
2019-04-28T03:57:22.124Z,18.37
2019-04-28T03:59:51.785Z,14.93
2019-04-28T04:02:23.688Z,18.60
2019-04-28T04:04:53.041Z,16.33
2019-04-28T04:07:22.667Z,19.10
2019-04-28T04:10:00.902Z,16.50
2019-04-28T04:12:44.506Z,17.63
2019-04-28T04:15:41.277Z,16.80
2019-04-28T04:18:12.618Z,17.60
2019-04-28T04:20:42.109Z,15.57
2019-04-28T04:23:11.630Z,16.27
2019-04-28T04:25:41.851Z,17.47
2019-04-28T04:28:11.516Z,18.37
2019-04-28T04:30:41.199Z,21.60
2019-04-28T04:33:11.254Z,17.17
2019-04-28T04:35:43.543Z,18.70
2019-04-28T04:38:12.028Z,21.30
2019-04-28T04:40:41.594Z,19.40
2019-04-28T04:43:11.474Z,22.33
2019-04-28T04:45:41.058Z,19.23
2019-04-28T04:48:11.657Z,17.70
2019-04-28T04:50:41.430Z,18.40
2019-04-28T04:53:11.244Z,18.70
2019-04-28T04:55:41.113Z,20.03
2019-04-28T04:58:10.909Z,20.37
2019-04-28T05:00:43.281Z,19.27
2019-04-28T05:03:31.354Z,23.40
2019-04-28T05:06:01.120Z,21.07
2019-04-28T05:08:30.617Z,25.97
2019-04-28T05:11:00.188Z,22.83
2019-04-28T05:13:30.054Z,19.30
2019-04-28T05:15:59.877Z,16.90
2019-04-28T05:18:29.790Z,21.83
2019-04-28T05:20:59.535Z,19.90
2019-04-28T05:23:36.529Z,19.27
2019-04-28T05:26:08.119Z,20.17
2019-04-28T05:28:43.867Z,19.40
2019-04-28T05:31:13.877Z,22.20
2019-04-28T05:33:42.094Z,21.03
2019-04-28T05:36:12.125Z,21.73
2019-04-28T05:38:42.148Z,19.40
2019-04-28T05:41:11.757Z,22.73
2019-04-28T05:43:41.276Z,22.10
2019-04-28T05:46:10.853Z,21.00
2019-04-28T05:48:41.989Z,21.03
2019-04-28T05:51:13.129Z,22.53
2019-04-28T05:53:47.073Z,21.27
2019-04-28T05:56:23.105Z,20.93
2019-04-28T05:58:54.317Z,24.00
2019-04-28T06:01:33.949Z,21.43
2019-04-28T06:04:03.504Z,21.43
2019-04-28T06:06:34.730Z,18.40
2019-04-28T06:09:10.462Z,22.10
2019-04-28T06:11:41.721Z,21.23
2019-04-28T06:14:11.208Z,24.63
2019-04-28T06:16:40.816Z,22.70
2019-04-28T06:19:10.476Z,21.10
2019-04-28T06:21:40.009Z,17.77
2019-04-28T06:24:09.580Z,22.70
2019-04-28T06:26:39.073Z,22.80
2019-04-28T06:29:08.645Z,19.90
2019-04-28T06:31:38.205Z,19.63
2019-04-28T06:34:07.723Z,21.23
2019-04-28T06:36:37.307Z,20.57
2019-04-28T06:39:07.709Z,23.10
2019-04-28T06:41:37.293Z,25.60
2019-04-28T06:44:06.949Z,18.97
2019-04-28T06:46:36.448Z,23.33
2019-04-28T06:49:06.109Z,23.07
2019-04-28T06:51:35.685Z,19.73
2019-04-28T06:54:04.852Z,16.23
2019-04-28T06:56:34.353Z,21.20
2019-04-28T06:59:03.905Z,17.03
2019-04-28T07:01:33.421Z,18.23
2019-04-28T07:04:02.917Z,19.37
2019-04-28T07:06:32.426Z,18.17
2019-04-28T07:09:01.992Z,18.30
2019-04-28T07:11:31.485Z,18.00
2019-04-28T07:14:01.068Z,18.10
2019-04-28T07:16:30.308Z,18.10
2019-04-28T07:18:59.782Z,15.27
2019-04-28T07:21:30.664Z,17.97
2019-04-28T07:24:00.076Z,16.77
2019-04-28T07:26:29.654Z,16.90
2019-04-28T07:28:59.165Z,20.37
2019-04-28T07:31:28.669Z,17.03
2019-04-28T07:33:58.239Z,18.03
2019-04-28T07:36:27.481Z,16.90
2019-04-28T07:38:57.037Z,18.17
2019-04-28T07:41:26.529Z,19.27
2019-04-28T07:43:56.044Z,16.47
2019-04-28T07:46:25.284Z,16.27
2019-04-28T07:48:54.832Z,17.43
2019-04-28T07:51:25.965Z,15.83
2019-04-28T07:53:56.776Z,16.10
2019-04-28T07:56:26.372Z,16.73
2019-04-28T07:58:55.885Z,18.10
2019-04-28T08:01:25.517Z,13.50
2019-04-28T08:03:57.424Z,14.47
2019-04-28T08:06:27.052Z,15.27
2019-04-28T08:08:56.318Z,16.73
2019-04-28T08:11:25.460Z,12.43
2019-04-28T08:13:54.855Z,12.93
2019-04-28T08:16:24.104Z,14.60
2019-04-28T08:18:53.236Z,15.67
2019-04-28T08:21:22.700Z,15.13
2019-04-28T08:23:52.201Z,16.17
2019-04-28T08:26:21.364Z,17.93
2019-04-28T08:28:50.834Z,13.37
2019-04-28T08:31:21.712Z,14.03
2019-04-28T08:34:02.252Z,14.77
2019-04-28T08:36:26.352Z,15.47
2019-04-28T08:38:55.841Z,13.13
2019-04-28T08:41:25.405Z,13.10
2019-04-28T08:43:54.648Z,14.37
2019-04-28T08:46:23.713Z,12.80
2019-04-28T08:48:53.195Z,14.40
2019-04-28T08:51:22.766Z,14.63
2019-04-28T08:53:51.932Z,12.27
2019-04-28T08:56:21.018Z,11.87
2019-04-28T08:58:50.094Z,11.07
2019-04-28T09:01:19.263Z,12.83
2019-04-28T09:03:48.392Z,11.27
2019-04-28T09:06:17.488Z,12.07
2019-04-28T09:08:48.180Z,10.40
2019-04-28T09:11:17.262Z,14.27
2019-04-28T09:13:46.741Z,11.33
2019-04-28T09:16:15.897Z,10.17
2019-04-28T09:18:44.989Z,11.50
2019-04-28T09:21:14.045Z,11.67
2019-04-28T09:23:43.201Z,10.40
2019-04-28T09:26:12.300Z,15.97
2019-04-28T09:28:41.380Z,9.23
2019-04-28T09:31:10.461Z,10.90
2019-04-28T09:33:39.530Z,11.63
2019-04-28T09:36:08.604Z,14.03
2019-04-28T09:38:38.073Z,7.83
2019-04-28T09:41:07.237Z,8.23
2019-04-28T09:43:55.966Z,7.93
2019-04-28T09:46:26.999Z,14.73
2019-04-28T09:48:56.564Z,11.37
2019-04-28T09:51:25.725Z,9.97
2019-04-28T09:53:54.788Z,9.50
2019-04-28T09:56:23.854Z,8.20
2019-04-28T09:58:53.010Z,8.07
2019-04-28T10:01:22.065Z,7.10
2019-04-28T10:03:51.468Z,11.87
2019-04-28T10:06:20.697Z,6.80
2019-04-28T10:08:49.781Z,4.97
2019-04-28T10:11:29.990Z,6.20
2019-04-28T10:14:09.510Z,9.97
2019-04-28T10:16:38.580Z,7.63
2019-04-28T10:19:08.053Z,9.97
2019-04-28T10:21:37.233Z,9.90
2019-04-28T10:24:06.374Z,8.13
2019-04-28T10:26:35.505Z,12.60
2019-04-28T10:29:05.052Z,9.73
2019-04-28T10:31:34.289Z,10.63
2019-04-28T10:34:05.048Z,10.80
2019-04-28T10:36:35.663Z,8.67
2019-04-28T10:39:28.276Z,6.70
2019-04-28T10:41:57.348Z,15.50
2019-04-28T10:44:28.320Z,8.23
2019-04-28T10:46:57.717Z,8.13
2019-04-28T10:49:26.791Z,8.17
2019-04-28T10:51:59.371Z,7.33
2019-04-28T10:54:27.109Z,12.33
2019-04-28T10:56:56.270Z,10.40
2019-04-28T10:59:25.689Z,8.50
2019-04-28T11:01:55.253Z,9.37
2019-04-28T11:04:42.737Z,10.27
2019-04-28T11:07:14.172Z,9.70
2019-04-28T11:09:53.988Z,11.40
2019-04-28T11:12:25.107Z,9.87
2019-04-28T11:14:54.823Z,10.87
2019-04-28T11:17:25.288Z,5.90
2019-04-28T11:19:54.908Z,8.23
2019-04-28T11:22:24.535Z,7.77
2019-04-28T11:24:53.767Z,8.13
2019-04-28T11:27:22.904Z,7.97
2019-04-28T11:29:52.290Z,6.13
2019-04-28T11:32:21.599Z,7.40
2019-04-28T11:34:58.933Z,9.77
2019-04-28T11:37:28.638Z,9.93
2019-04-28T11:39:57.879Z,8.63
2019-04-28T11:42:27.359Z,6.17
2019-04-28T11:44:56.913Z,10.13
2019-04-28T11:47:26.721Z,7.43
2019-04-28T11:49:56.280Z,7.00
2019-04-28T11:52:25.847Z,8.13
2019-04-28T11:54:55.426Z,8.20
2019-04-28T11:57:24.924Z,6.07
2019-04-28T11:59:54.278Z,7.27
2019-04-28T12:02:23.907Z,6.47
2019-04-28T12:04:54.824Z,5.50
2019-04-28T12:07:24.574Z,5.03
2019-04-28T12:10:04.704Z,4.10
2019-04-28T12:12:34.441Z,6.43
2019-04-28T12:15:15.014Z,5.90
2019-04-28T12:17:46.309Z,6.90
2019-04-28T12:20:20.237Z,5.53
2019-04-28T12:22:49.831Z,5.27
2019-04-28T12:25:19.424Z,3.67
2019-04-28T12:27:48.993Z,5.57
2019-04-28T12:30:18.669Z,11.37
2019-04-28T12:33:07.565Z,5.00
2019-04-28T12:35:47.111Z,3.87
2019-04-28T12:38:08.390Z,2.90
2019-04-28T12:40:37.965Z,3.50
2019-04-28T12:43:07.520Z,4.40
2019-04-28T12:45:37.101Z,4.77
2019-04-28T12:48:06.671Z,3.30
2019-04-28T12:50:37.881Z,6.33
2019-04-28T12:53:07.369Z,2.97
2019-04-28T12:55:37.049Z,5.43
2019-04-28T12:58:06.730Z,4.77
2019-04-28T13:00:37.937Z,4.97
2019-04-28T13:03:25.351Z,4.83
2019-04-28T13:06:03.650Z,3.70
2019-04-28T13:08:27.760Z,5.93
2019-04-28T13:10:57.333Z,4.57
2019-04-28T13:13:26.918Z,4.93
2019-04-28T13:15:56.496Z,3.83
2019-04-28T13:18:45.409Z,5.13
2019-04-28T13:21:14.896Z,5.33
2019-04-28T13:23:44.545Z,4.00
2019-04-28T13:26:14.109Z,4.27
2019-04-28T13:28:43.698Z,4.47
2019-04-28T13:31:13.408Z,3.70
2019-04-28T13:33:55.744Z,4.33
2019-04-28T13:36:15.310Z,3.07
2019-04-28T13:38:45.075Z,4.93
2019-04-28T13:41:14.648Z,6.57
2019-04-28T13:43:44.217Z,5.03
2019-04-28T13:46:13.847Z,5.50
2019-04-28T13:48:43.469Z,5.03
2019-04-28T13:51:13.065Z,5.10
2019-04-28T13:53:42.644Z,5.77
2019-04-28T13:56:12.209Z,4.20
2019-04-28T13:58:42.043Z,3.13
2019-04-28T14:01:19.274Z,2.93
2019-04-28T14:03:56.697Z,4.70
2019-04-28T14:06:28.924Z,2.73
2019-04-28T14:08:58.745Z,4.30
2019-04-28T14:11:28.317Z,5.00
2019-04-28T14:13:58.093Z,2.87
2019-04-28T14:16:37.656Z,3.00
2019-04-28T14:19:07.261Z,3.00
2019-04-28T14:21:36.856Z,3.63
2019-04-28T14:24:06.433Z,3.50
2019-04-28T14:26:36.168Z,3.13
2019-04-28T14:29:05.793Z,3.67
2019-04-28T14:31:35.389Z,3.90
2019-04-28T14:34:05.011Z,2.83
2019-04-28T14:36:41.851Z,4.30
2019-04-28T14:39:07.613Z,2.87
2019-04-28T14:41:37.250Z,3.13
2019-04-28T14:44:06.828Z,2.80
2019-04-28T14:46:36.392Z,3.00
2019-04-28T14:49:06.038Z,3.07
2019-04-28T14:51:35.733Z,2.60
2019-04-28T14:54:05.297Z,3.07
2019-04-28T14:56:34.881Z,5.33
2019-04-28T14:59:04.552Z,2.43
2019-04-28T15:01:38.709Z,2.60
2019-04-28T15:04:12.713Z,4.07
2019-04-28T15:06:55.148Z,3.63
2019-04-28T15:09:17.049Z,2.80
2019-04-28T15:11:48.253Z,4.67
2019-04-28T15:14:17.848Z,4.00
2019-04-28T15:16:47.651Z,3.00
2019-04-28T15:19:17.382Z,3.43
2019-04-28T15:21:47.038Z,3.73
2019-04-28T15:24:16.717Z,3.60
2019-04-28T15:26:46.288Z,2.30
2019-04-28T15:29:15.860Z,4.07
2019-04-28T15:31:45.526Z,2.53
2019-04-28T15:34:15.096Z,2.40
2019-04-28T15:36:44.669Z,2.43
2019-04-28T15:39:15.311Z,16.10
2019-04-28T15:41:44.892Z,1.93
2019-04-28T15:44:14.472Z,2.30
2019-04-28T15:46:44.029Z,4.03
2019-04-28T15:49:13.705Z,12.90
2019-04-28T15:51:43.201Z,9.47
2019-04-28T15:54:12.768Z,10.80
2019-04-28T15:56:43.977Z,5.73
2019-04-28T15:59:13.552Z,4.53
2019-04-28T16:01:43.108Z,3.80
2019-04-28T16:04:12.687Z,3.03
2019-04-28T16:06:42.345Z,2.47
2019-04-28T16:09:12.785Z,4.47
2019-04-28T16:11:42.700Z,2.53
2019-04-28T16:14:12.262Z,2.90
2019-04-28T16:16:41.823Z,2.50
2019-04-28T16:19:11.493Z,3.20
2019-04-28T16:21:41.169Z,2.43
2019-04-28T16:24:10.812Z,1.80
2019-04-28T16:26:40.501Z,2.10
2019-04-28T16:29:10.052Z,2.93
2019-04-28T16:31:39.625Z,1.93
2019-04-28T16:34:09.196Z,2.80
2019-04-28T16:36:38.761Z,2.00
2019-04-28T16:39:08.257Z,1.80
2019-04-28T16:41:48.708Z,2.13
2019-04-28T16:44:24.247Z,3.00
2019-04-28T16:46:53.821Z,2.23
2019-04-28T16:49:23.389Z,2.00
2019-04-28T16:51:53.048Z,1.70
2019-04-28T16:54:22.636Z,3.10
2019-04-28T16:56:59.304Z,1.90
2019-04-28T16:59:32.542Z,2.07
2019-04-28T17:02:15.733Z,2.63
2019-04-28T17:04:45.216Z,3.30
2019-04-28T17:07:15.746Z,3.40
2019-04-28T17:09:45.301Z,2.20
2019-04-28T17:12:15.268Z,2.37
2019-04-28T17:14:44.828Z,2.20
2019-04-28T17:17:14.405Z,3.00
2019-04-28T17:19:43.968Z,3.50
2019-04-28T17:22:13.800Z,3.13
2019-04-28T17:24:43.547Z,2.40
2019-04-28T17:27:13.105Z,2.90
2019-04-28T17:29:42.681Z,3.80
2019-04-28T17:32:12.340Z,3.57
2019-04-28T17:34:41.916Z,3.70
2019-04-28T17:37:12.459Z,2.50
2019-04-28T17:39:42.008Z,3.03
2019-04-28T17:42:12.863Z,4.93
2019-04-28T17:44:42.538Z,4.87
2019-04-28T17:47:13.865Z,2.90
2019-04-28T17:49:43.532Z,3.77
2019-04-28T17:52:13.193Z,3.37
2019-04-28T17:54:44.314Z,2.93
2019-04-28T17:57:14.036Z,4.63
2019-04-28T17:59:44.481Z,3.33
2019-04-28T18:02:15.680Z,3.60
2019-04-28T18:04:46.893Z,2.50
2019-04-28T18:07:39.077Z,4.73
2019-04-28T18:10:08.653Z,4.80
2019-04-28T18:12:38.380Z,2.53
2019-04-28T18:15:15.912Z,3.77
2019-04-28T18:18:02.235Z,4.13
2019-04-28T18:20:31.912Z,2.63
2019-04-28T18:23:01.585Z,2.80
2019-04-28T18:25:31.204Z,4.90
2019-04-28T18:28:01.009Z,3.10
2019-04-28T18:30:32.210Z,8.63
2019-04-28T18:33:19.652Z,2.83
2019-04-28T18:35:50.783Z,3.83
2019-04-28T18:38:34.841Z,3.20
2019-04-28T18:41:03.114Z,2.70
2019-04-28T18:43:45.865Z,4.10
2019-04-28T18:46:22.020Z,3.57
2019-04-28T18:48:51.584Z,2.80
2019-04-28T18:51:21.241Z,3.47
2019-04-28T18:53:50.848Z,3.70
2019-04-28T18:56:20.408Z,2.67
2019-04-28T18:58:49.915Z,4.93
2019-04-28T19:01:27.029Z,4.03
2019-04-28T19:03:56.529Z,4.13
2019-04-28T19:06:26.093Z,3.77
2019-04-28T19:09:03.399Z,4.50
2019-04-28T19:11:40.480Z,4.03
2019-04-28T19:14:14.445Z,4.37
2019-04-28T19:16:51.741Z,4.00
2019-04-28T19:19:22.953Z,6.60
2019-04-28T19:21:56.240Z,5.77
2019-04-28T19:24:27.160Z,5.67
2019-04-28T19:26:56.721Z,4.47
2019-04-28T19:29:26.215Z,3.97
2019-04-28T19:31:55.772Z,3.23
2019-04-28T19:34:25.280Z,3.67
2019-04-28T19:36:54.838Z,4.90
2019-04-28T19:39:24.385Z,5.03
2019-04-28T19:41:54.051Z,8.20
2019-04-28T19:44:23.617Z,7.90
2019-04-28T19:46:53.172Z,4.73
2019-04-28T19:49:22.665Z,5.00
2019-04-28T19:51:52.173Z,4.30
2019-04-28T19:54:23.312Z,5.70
2019-04-28T19:56:56.829Z,3.30
2019-04-28T19:59:44.529Z,5.13
2019-04-28T20:02:14.280Z,4.33
2019-04-28T20:04:43.848Z,4.03
2019-04-28T20:07:13.476Z,5.30
2019-04-28T20:09:42.977Z,4.43
2019-04-28T20:12:12.461Z,4.57
2019-04-28T20:14:41.953Z,4.23
2019-04-28T20:17:11.433Z,6.23
2019-04-28T20:19:40.937Z,4.13
2019-04-28T20:22:10.416Z,4.30
2019-04-28T20:24:46.959Z,3.47
2019-04-28T20:27:11.236Z,3.50
2019-04-28T20:29:40.800Z,5.03
2019-04-28T20:32:10.347Z,3.47
2019-04-28T20:34:39.913Z,5.67
2019-04-28T20:37:13.704Z,6.80
2019-04-28T20:39:44.827Z,4.30
2019-04-28T20:42:30.969Z,3.87
2019-04-28T20:45:00.518Z,3.67
2019-04-28T20:47:30.012Z,4.87
2019-04-28T20:49:59.560Z,3.13
2019-04-28T20:52:29.052Z,3.77
2019-04-28T20:54:58.610Z,3.30
2019-04-28T20:57:28.100Z,2.83
2019-04-28T20:59:57.582Z,3.63
2019-04-28T21:02:27.076Z,3.47
2019-04-28T21:04:56.636Z,4.77
2019-04-28T21:07:26.136Z,4.37
2019-04-28T21:09:55.684Z,4.77
2019-04-28T21:12:25.500Z,4.03
2019-04-28T21:14:55.135Z,5.80
2019-04-28T21:17:24.641Z,3.47
2019-04-28T21:19:54.121Z,3.77
2019-04-28T21:22:23.620Z,4.87
2019-04-28T21:24:53.101Z,3.50
2019-04-28T21:27:22.584Z,8.13
2019-04-28T21:29:52.141Z,6.07
2019-04-28T21:32:21.654Z,3.67
2019-04-28T21:34:51.196Z,5.23
2019-04-28T21:37:20.682Z,4.57
2019-04-28T21:39:50.168Z,4.43
2019-04-28T21:42:26.798Z,5.13
2019-04-28T21:45:03.899Z,3.87
2019-04-28T21:47:37.780Z,5.90
2019-04-28T21:50:07.522Z,5.53
2019-04-28T21:52:37.005Z,4.30
2019-04-28T21:55:07.338Z,5.80
2019-04-28T21:57:36.823Z,5.40
2019-04-28T22:00:10.617Z,6.55
2019-04-28T22:02:40.171Z,7.40
2019-04-28T22:05:09.876Z,5.87
2019-04-28T22:07:39.517Z,11.40
2019-04-28T22:10:09.157Z,6.27
2019-04-28T22:12:38.636Z,6.40
2019-04-28T22:15:08.341Z,11.20
2019-04-28T22:17:37.847Z,7.10
2019-04-28T22:20:07.836Z,7.33
2019-04-28T22:22:37.321Z,7.23
2019-04-28T22:25:20.405Z,9.17
2019-04-28T22:27:49.904Z,8.20
2019-04-28T22:30:19.384Z,11.13
2019-04-28T22:32:48.856Z,9.30
2019-04-28T22:35:18.490Z,8.73
2019-04-28T22:37:47.973Z,7.70
2019-04-28T22:40:17.618Z,9.43
2019-04-28T22:42:47.163Z,7.93
2019-04-28T22:45:16.890Z,9.50
2019-04-28T22:47:46.442Z,10.17
2019-04-28T22:50:30.500Z,9.13
2019-04-28T22:52:59.721Z,9.00
2019-04-28T22:55:29.956Z,11.90
2019-04-28T22:58:18.593Z,8.87
2019-04-28T23:00:55.237Z,8.80
2019-04-28T23:03:29.364Z,13.07
2019-04-28T23:05:58.869Z,9.60
2019-04-28T23:08:28.422Z,8.60
2019-04-28T23:10:57.973Z,8.03
2019-04-28T23:13:27.536Z,10.53
2019-04-28T23:15:57.092Z,9.53
2019-04-28T23:18:26.801Z,12.30
2019-04-28T23:20:57.929Z,11.13
2019-04-28T23:23:27.494Z,11.23
2019-04-28T23:25:57.051Z,16.50
2019-04-28T23:28:26.625Z,12.60
2019-04-28T23:30:56.109Z,9.53
2019-04-28T23:33:25.682Z,12.47
2019-04-28T23:35:55.180Z,9.07
2019-04-28T23:38:24.672Z,14.27
2019-04-28T23:40:55.813Z,14.00
2019-04-28T23:43:25.316Z,13.77
2019-04-28T23:45:54.877Z,13.37
2019-04-28T23:48:24.445Z,11.47
2019-04-28T23:51:04.645Z,10.47
2019-04-28T23:53:52.080Z,11.23
2019-04-28T23:56:21.637Z,11.53
2019-04-28T23:58:51.140Z,12.03
